createdAt,value
2022-12-25T00:03:56.772Z,28.33
2022-12-25T00:08:58.226Z,21.52
2022-12-25T00:13:59.528Z,25.30
2022-12-25T00:19:01.209Z,27.40
2022-12-25T00:24:03.449Z,26.73
2022-12-25T00:29:04.901Z,31.02
2022-12-25T00:34:06.249Z,22.15
2022-12-25T00:39:07.639Z,27.30
2022-12-25T00:44:11.209Z,17.50
2022-12-25T00:49:13.399Z,24.58
2022-12-25T00:54:14.915Z,21.27
2022-12-25T00:59:16.266Z,28.80
2022-12-25T01:04:17.606Z,30.58
2022-12-25T01:09:37.609Z,20.98
2022-12-25T01:14:38.942Z,25.73
2022-12-25T01:19:40.308Z,30.67
2022-12-25T01:24:45.389Z,31.95
2022-12-25T01:29:46.856Z,30.13
2022-12-25T01:34:53.731Z,22.20
2022-12-25T01:39:57.202Z,26.98
2022-12-25T01:45:44.289Z,24.85
2022-12-25T01:50:49.880Z,26.63
2022-12-25T01:55:55.069Z,28.88
2022-12-25T02:00:56.507Z,23.45
2022-12-25T02:05:59.220Z,28.27
2022-12-25T02:11:00.546Z,28.10
2022-12-25T02:16:13.625Z,28.85
2022-12-25T02:21:48.858Z,26.38
2022-12-25T02:26:59.222Z,29.50
2022-12-25T02:32:31.775Z,24.40
2022-12-25T02:37:42.018Z,26.35
2022-12-25T02:43:20.387Z,28.35
2022-12-25T02:54:04.631Z,21.42
2022-12-25T02:59:26.601Z,27.75
2022-12-25T03:04:48.210Z,21.52
2022-12-25T03:10:15.483Z,25.98
2022-12-25T03:15:37.501Z,27.03
2022-12-25T03:20:57.806Z,26.20
2022-12-25T03:26:17.636Z,24.98
2022-12-25T03:31:33.565Z,33.40
2022-12-25T03:37:06.973Z,24.55
2022-12-25T03:42:27.648Z,23.27
2022-12-25T03:47:52.558Z,25.70
2022-12-25T03:53:14.455Z,20.35
2022-12-25T03:58:39.812Z,26.98
2022-12-25T04:03:59.697Z,25.10
2022-12-25T04:09:19.772Z,25.88
2022-12-25T04:14:39.771Z,24.63
2022-12-25T04:19:59.756Z,21.60
2022-12-25T04:25:39.460Z,23.13
2022-12-25T04:30:59.483Z,21.85
2022-12-25T04:36:09.826Z,26.23
2022-12-25T04:41:12.759Z,18.80
2022-12-25T04:46:14.120Z,22.27
2022-12-25T04:51:23.497Z,28.67
2022-12-25T04:56:24.922Z,31.17
2022-12-25T05:01:26.436Z,17.13
2022-12-25T05:06:27.985Z,22.95
2022-12-25T05:11:29.327Z,29.48
2022-12-25T05:16:30.773Z,24.75
2022-12-25T05:21:32.235Z,18.45
2022-12-25T05:26:33.544Z,26.55
2022-12-25T05:31:34.973Z,27.75
2022-12-25T05:36:36.424Z,20.85
2022-12-25T05:41:37.807Z,21.88
2022-12-25T05:46:39.252Z,18.63
2022-12-25T05:51:40.644Z,19.48
2022-12-25T05:56:42.175Z,17.10
2022-12-25T06:01:43.733Z,20.13
2022-12-25T06:06:45.136Z,18.08
2022-12-25T06:11:46.572Z,23.17
2022-12-25T06:16:52.121Z,18.23
2022-12-25T06:21:54.701Z,17.80
2022-12-25T06:26:56.092Z,14.90
2022-12-25T06:31:58.812Z,16.65
2022-12-25T06:37:00.230Z,19.00
2022-12-25T06:42:01.613Z,21.58
2022-12-25T06:47:02.991Z,22.98
2022-12-25T06:52:04.426Z,12.98
2022-12-25T06:57:05.755Z,15.80
2022-12-25T07:02:18.794Z,11.35
2022-12-25T07:07:21.408Z,15.07
2022-12-25T07:12:23.731Z,16.83
2022-12-25T07:17:25.172Z,18.38
2022-12-25T07:22:29.085Z,14.93
2022-12-25T07:27:30.572Z,14.70
2022-12-25T07:32:32.501Z,12.68
2022-12-25T07:37:34.010Z,16.02
2022-12-25T07:42:35.435Z,17.35
2022-12-25T07:47:40.015Z,15.93
2022-12-25T07:52:43.560Z,10.93
2022-12-25T07:57:45.452Z,10.60
2022-12-25T08:02:50.115Z,10.45
2022-12-25T08:07:57.658Z,14.48
2022-12-25T08:12:59.629Z,13.70
2022-12-25T08:18:01.221Z,8.52
2022-12-25T08:23:04.166Z,6.40
2022-12-25T08:28:05.856Z,14.63
2022-12-25T08:33:07.518Z,12.32
2022-12-25T08:38:09.002Z,13.63
2022-12-25T08:43:10.546Z,16.60
2022-12-25T08:48:12.101Z,8.40
2022-12-25T08:53:14.089Z,8.00
2022-12-25T08:58:16.607Z,7.75
2022-12-25T09:03:18.147Z,8.65
2022-12-25T09:08:20.208Z,12.05
2022-12-25T09:13:21.632Z,15.18
2022-12-25T09:18:25.651Z,14.65
2022-12-25T09:23:28.907Z,7.55
2022-12-25T09:28:30.952Z,9.43
2022-12-25T09:33:32.569Z,9.07
2022-12-25T09:38:34.764Z,7.57
2022-12-25T09:43:42.258Z,9.40
2022-12-25T09:53:58.601Z,6.03
2022-12-25T09:59:03.165Z,9.63
2022-12-25T10:04:51.039Z,9.20
2022-12-25T10:10:36.725Z,7.93
2022-12-25T10:16:16.128Z,9.20
2022-12-25T10:21:18.899Z,7.78
2022-12-25T10:26:22.759Z,9.05
2022-12-25T10:31:27.975Z,10.38
2022-12-25T10:36:30.801Z,8.75
2022-12-25T10:41:53.941Z,6.72
2022-12-25T10:46:58.195Z,12.40
2022-12-25T10:52:00.303Z,9.32
2022-12-25T10:57:16.583Z,7.18
2022-12-25T11:02:25.125Z,7.80
2022-12-25T11:07:27.161Z,5.88
2022-12-25T11:12:32.863Z,7.18
2022-12-25T11:17:35.930Z,10.02
2022-12-25T11:22:37.573Z,6.32
2022-12-25T11:27:39.052Z,13.95
2022-12-25T11:32:52.380Z,6.35
2022-12-25T11:37:54.079Z,6.70
2022-12-25T11:43:22.133Z,8.65
2022-12-25T11:48:32.894Z,7.30
2022-12-25T11:53:49.213Z,9.02
2022-12-25T11:59:18.578Z,7.22
2022-12-25T12:04:52.216Z,9.13
2022-12-25T12:10:21.523Z,10.02
2022-12-25T12:15:43.555Z,4.65
2022-12-25T12:20:46.297Z,10.32
2022-12-25T12:25:48.385Z,6.10
2022-12-25T12:31:16.576Z,6.95
2022-12-25T12:36:29.223Z,8.02
2022-12-25T12:41:47.676Z,12.63
2022-12-25T12:46:57.212Z,5.70
2022-12-25T12:52:24.845Z,5.95
2022-12-25T12:57:29.815Z,5.97
2022-12-25T13:02:43.535Z,6.88
2022-12-25T13:07:53.981Z,4.85
2022-12-25T13:13:00.646Z,7.63
2022-12-25T13:18:06.190Z,8.73
2022-12-25T13:23:35.256Z,9.20
2022-12-25T13:28:37.314Z,7.07
2022-12-25T13:33:40.911Z,8.63
2022-12-25T13:38:47.030Z,6.30
2022-12-25T13:43:49.277Z,6.80
2022-12-25T13:49:00.216Z,6.97
2022-12-25T13:54:06.755Z,7.28
2022-12-25T13:59:16.163Z,6.32
2022-12-25T14:04:23.924Z,5.20
2022-12-25T14:09:25.765Z,7.13
2022-12-25T14:14:27.643Z,8.00
2022-12-25T14:19:34.207Z,12.48
2022-12-25T14:24:35.840Z,14.03
2022-12-25T14:29:40.253Z,13.23
2022-12-25T14:34:44.172Z,9.75
2022-12-25T14:39:57.282Z,11.43
2022-12-25T14:45:26.448Z,10.90
2022-12-25T14:50:32.233Z,10.40
2022-12-25T14:55:37.252Z,12.43
2022-12-25T15:00:39.773Z,13.25
2022-12-25T15:05:41.312Z,12.52
2022-12-25T15:11:01.031Z,10.18
2022-12-25T15:16:14.356Z,10.50
2022-12-25T15:21:21.919Z,13.80
2022-12-25T15:31:33.789Z,14.57
2022-12-25T15:36:35.445Z,13.48
2022-12-25T15:41:56.750Z,20.17
2022-12-25T15:47:01.726Z,11.93
2022-12-25T15:52:04.505Z,12.85
2022-12-25T15:57:14.265Z,20.83
2022-12-25T16:02:18.977Z,20.40
2022-12-25T16:07:23.529Z,12.27
2022-12-25T16:12:25.514Z,16.42
2022-12-25T16:17:27.285Z,18.10
2022-12-25T16:22:28.937Z,27.38
2022-12-25T16:27:30.453Z,21.88
2022-12-25T16:32:31.919Z,16.67
2022-12-25T16:37:34.941Z,16.73
2022-12-25T16:42:37.402Z,20.60
2022-12-25T16:47:38.903Z,17.10
2022-12-25T16:52:40.583Z,11.88
2022-12-25T16:57:42.108Z,12.80
2022-12-25T17:02:43.994Z,15.15
2022-12-25T17:07:47.000Z,19.60
2022-12-25T17:12:48.522Z,14.23
2022-12-25T17:17:49.969Z,17.50
2022-12-25T17:22:51.616Z,20.95
2022-12-25T17:27:53.285Z,20.17
2022-12-25T17:32:55.219Z,37.72
2022-12-25T17:37:56.769Z,33.15
2022-12-25T17:42:58.312Z,23.67
2022-12-25T17:47:59.856Z,26.75
2022-12-25T17:53:03.488Z,23.52
2022-12-25T17:58:05.259Z,18.00
2022-12-25T18:03:11.547Z,20.17
2022-12-25T18:08:14.619Z,17.00
2022-12-25T18:13:16.150Z,22.27
2022-12-25T18:18:17.737Z,17.95
2022-12-25T18:23:20.263Z,27.65
2022-12-25T18:28:21.784Z,23.02
2022-12-25T18:33:23.288Z,24.52
2022-12-25T18:38:24.802Z,21.52
2022-12-25T18:43:53.960Z,20.25
2022-12-25T18:48:55.240Z,20.63
2022-12-25T18:53:57.258Z,22.33
2022-12-25T18:59:00.522Z,23.60
2022-12-25T19:04:05.706Z,21.90
2022-12-25T19:09:10.855Z,21.90
2022-12-25T19:14:12.531Z,16.55
2022-12-25T19:19:14.730Z,16.55
2022-12-25T19:24:16.197Z,15.15
2022-12-25T19:29:17.658Z,17.40
2022-12-25T19:34:19.173Z,18.33
2022-12-25T19:39:20.704Z,13.82
2022-12-25T19:44:22.206Z,14.02
2022-12-25T19:49:24.093Z,12.93
2022-12-25T19:54:25.812Z,14.18
2022-12-25T19:59:27.396Z,13.80
2022-12-25T20:04:28.946Z,10.77
2022-12-25T20:09:31.174Z,15.95
2022-12-25T20:14:32.691Z,14.38
2022-12-25T20:19:34.532Z,13.23
2022-12-25T20:24:36.261Z,15.98
2022-12-25T20:29:37.888Z,11.32
2022-12-25T20:34:39.423Z,9.63
2022-12-25T20:39:40.933Z,11.43
2022-12-25T20:44:44.913Z,10.88
2022-12-25T20:49:47.503Z,7.90
2022-12-25T20:54:49.489Z,8.90
2022-12-25T20:59:54.560Z,10.50
2022-12-25T21:04:56.018Z,10.60
2022-12-25T21:09:57.808Z,8.07
2022-12-25T21:14:59.387Z,11.70
2022-12-25T21:20:00.934Z,10.68
2022-12-25T21:25:02.593Z,11.15
2022-12-25T21:30:14.913Z,7.65
2022-12-25T21:35:17.207Z,8.00
2022-12-25T21:40:18.668Z,7.22
2022-12-25T21:45:20.260Z,10.35
2022-12-25T21:50:40.778Z,8.13
2022-12-25T21:55:43.290Z,7.05
2022-12-25T22:00:44.885Z,5.10
2022-12-25T22:06:08.003Z,5.95
2022-12-25T22:11:32.520Z,6.50
2022-12-25T22:16:52.652Z,7.05
2022-12-25T22:27:11.546Z,6.40
2022-12-25T22:32:15.014Z,7.32
2022-12-25T22:37:18.304Z,3.72
2022-12-25T22:42:19.967Z,7.00
2022-12-25T22:47:25.189Z,4.38
2022-12-25T22:57:43.192Z,5.82
2022-12-25T23:02:52.591Z,7.20
2022-12-25T23:07:54.354Z,5.80
2022-12-25T23:13:14.263Z,4.22
2022-12-25T23:18:41.347Z,3.65
2022-12-25T23:24:03.093Z,5.07
2022-12-25T23:29:23.176Z,6.10
2022-12-25T23:34:24.925Z,4.47
2022-12-25T23:39:27.705Z,3.55
2022-12-25T23:49:53.318Z,4.70
2022-12-25T23:54:56.062Z,3.67
2022-12-25T23:59:57.670Z,3.95
